sensor_id;sensor_type;location;lat;lon;timestamp;P1;durP1;ratioP1;P2;durP2;ratioP2
10311;SDS011;5201;48.776;9.128;2022-12-22T00:02:43;0.73;;;0.73;;
10311;SDS011;5201;48.776;9.128;2022-12-22T00:05:27;0.70;;;0.70;;
10311;SDS011;5201;48.776;9.128;2022-12-22T00:08:12;1.23;;;0.80;;
10311;SDS011;5201;48.776;9.128;2022-12-22T00:10:56;1.33;;;0.97;;
10311;SDS011;5201;48.776;9.128;2022-12-22T00:13:43;1.10;;;0.73;;
10311;SDS011;5201;48.776;9.128;2022-12-22T00:16:30;0.90;;;0.77;;
10311;SDS011;5201;48.776;9.128;2022-12-22T00:19:16;3.50;;;1.00;;
10311;SDS011;5201;48.776;9.128;2022-12-22T00:22:03;4.07;;;0.77;;
10311;SDS011;5201;48.776;9.128;2022-12-22T00:24:55;0.93;;;0.67;;
10311;SDS011;5201;48.776;9.128;2022-12-22T00:27:39;1.87;;;1.43;;
10311;SDS011;5201;48.776;9.128;2022-12-22T00:30:23;0.80;;;0.80;;
10311;SDS011;5201;48.776;9.128;2022-12-22T00:33:08;1.27;;;0.87;;
10311;SDS011;5201;48.776;9.128;2022-12-22T00:35:55;1.03;;;0.77;;
10311;SDS011;5201;48.776;9.128;2022-12-22T00:38:39;1.57;;;0.80;;
10311;SDS011;5201;48.776;9.128;2022-12-22T00:41:23;1.10;;;0.80;;
10311;SDS011;5201;48.776;9.128;2022-12-22T00:44:07;2.43;;;0.90;;
10311;SDS011;5201;48.776;9.128;2022-12-22T00:46:51;0.90;;;0.60;;
10311;SDS011;5201;48.776;9.128;2022-12-22T00:49:36;2.17;;;0.67;;
10311;SDS011;5201;48.776;9.128;2022-12-22T00:52:21;1.13;;;0.80;;
10311;SDS011;5201;48.776;9.128;2022-12-22T00:55:13;0.60;;;0.60;;
10311;SDS011;5201;48.776;9.128;2022-12-22T00:58:00;1.27;;;0.70;;
10311;SDS011;5201;48.776;9.128;2022-12-22T01:00:46;0.90;;;0.80;;
10311;SDS011;5201;48.776;9.128;2022-12-22T01:03:30;1.33;;;0.90;;
10311;SDS011;5201;48.776;9.128;2022-12-22T01:06:15;2.50;;;0.87;;
10311;SDS011;5201;48.776;9.128;2022-12-22T01:08:59;1.30;;;0.83;;
10311;SDS011;5201;48.776;9.128;2022-12-22T01:11:44;0.97;;;0.97;;
10311;SDS011;5201;48.776;9.128;2022-12-22T01:14:28;1.00;;;0.80;;
10311;SDS011;5201;48.776;9.128;2022-12-22T01:17:11;0.70;;;0.70;;
10311;SDS011;5201;48.776;9.128;2022-12-22T01:19:55;3.70;;;1.00;;
10311;SDS011;5201;48.776;9.128;2022-12-22T01:22:40;0.80;;;0.80;;
10311;SDS011;5201;48.776;9.128;2022-12-22T01:25:24;2.13;;;0.83;;
10311;SDS011;5201;48.776;9.128;2022-12-22T01:28:15;3.10;;;0.93;;
10311;SDS011;5201;48.776;9.128;2022-12-22T01:34:13;3.03;;;1.20;;
10311;SDS011;5201;48.776;9.128;2022-12-22T01:36:57;1.70;;;1.00;;
10311;SDS011;5201;48.776;9.128;2022-12-22T01:39:41;3.13;;;0.90;;
10311;SDS011;5201;48.776;9.128;2022-12-22T01:42:26;1.43;;;1.00;;
10311;SDS011;5201;48.776;9.128;2022-12-22T01:45:12;3.47;;;0.63;;
10311;SDS011;5201;48.776;9.128;2022-12-22T01:48:14;1.03;;;0.87;;
10311;SDS011;5201;48.776;9.128;2022-12-22T01:51:01;1.37;;;0.87;;
10311;SDS011;5201;48.776;9.128;2022-12-22T01:53:47;2.50;;;1.00;;
10311;SDS011;5201;48.776;9.128;2022-12-22T01:56:32;0.80;;;0.80;;
10311;SDS011;5201;48.776;9.128;2022-12-22T01:59:16;0.80;;;0.80;;
10311;SDS011;5201;48.776;9.128;2022-12-22T02:02:03;1.10;;;0.80;;
10311;SDS011;5201;48.776;9.128;2022-12-22T02:04:49;0.97;;;0.77;;
10311;SDS011;5201;48.776;9.128;2022-12-22T02:13:52;1.60;;;0.90;;
10311;SDS011;5201;48.776;9.128;2022-12-22T02:17:14;2.43;;;0.90;;
10311;SDS011;5201;48.776;9.128;2022-12-22T02:23:32;2.17;;;0.70;;
10311;SDS011;5201;48.776;9.128;2022-12-22T02:26:31;1.67;;;0.70;;
10311;SDS011;5201;48.776;9.128;2022-12-22T02:29:30;0.67;;;0.67;;
10311;SDS011;5201;48.776;9.128;2022-12-22T02:32:22;2.17;;;0.80;;
10311;SDS011;5201;48.776;9.128;2022-12-22T02:35:11;0.70;;;0.70;;
10311;SDS011;5201;48.776;9.128;2022-12-22T02:51:06;0.70;;;0.70;;
10311;SDS011;5201;48.776;9.128;2022-12-22T02:53:54;0.93;;;0.83;;
10311;SDS011;5201;48.776;9.128;2022-12-22T02:56:40;1.23;;;0.70;;
10311;SDS011;5201;48.776;9.128;2022-12-22T02:59:25;1.57;;;0.80;;
10311;SDS011;5201;48.776;9.128;2022-12-22T03:02:09;1.40;;;0.87;;
10311;SDS011;5201;48.776;9.128;2022-12-22T03:04:54;0.70;;;0.70;;
10311;SDS011;5201;48.776;9.128;2022-12-22T03:07:38;0.70;;;0.70;;
10311;SDS011;5201;48.776;9.128;2022-12-22T03:10:22;1.00;;;0.50;;
10311;SDS011;5201;48.776;9.128;2022-12-22T03:13:06;0.97;;;0.67;;
10311;SDS011;5201;48.776;9.128;2022-12-22T03:15:50;0.50;;;0.50;;
10311;SDS011;5201;48.776;9.128;2022-12-22T03:18:34;2.07;;;0.60;;
10311;SDS011;5201;48.776;9.128;2022-12-22T03:21:18;2.13;;;0.60;;
10311;SDS011;5201;48.776;9.128;2022-12-22T03:24:03;1.63;;;0.50;;
10311;SDS011;5201;48.776;9.128;2022-12-22T03:26:47;0.40;;;0.40;;
10311;SDS011;5201;48.776;9.128;2022-12-22T03:29:12;1.60;;;0.60;;
10311;SDS011;5201;48.776;9.128;2022-12-22T03:31:38;1.17;;;0.83;;
10311;SDS011;5201;48.776;9.128;2022-12-22T03:34:04;0.60;;;0.60;;
10311;SDS011;5201;48.776;9.128;2022-12-22T03:36:29;0.77;;;0.50;;
10311;SDS011;5201;48.776;9.128;2022-12-22T03:38:55;0.53;;;0.50;;
10311;SDS011;5201;48.776;9.128;2022-12-22T03:41:21;0.70;;;0.50;;
10311;SDS011;5201;48.776;9.128;2022-12-22T03:44:05;1.73;;;0.73;;
10311;SDS011;5201;48.776;9.128;2022-12-22T03:46:49;2.67;;;0.80;;
10311;SDS011;5201;48.776;9.128;2022-12-22T03:49:14;0.50;;;0.50;;
10311;SDS011;5201;48.776;9.128;2022-12-22T03:51:42;0.53;;;0.53;;
10311;SDS011;5201;48.776;9.128;2022-12-22T03:54:10;0.67;;;0.60;;
10311;SDS011;5201;48.776;9.128;2022-12-22T03:56:37;0.57;;;0.57;;
10311;SDS011;5201;48.776;9.128;2022-12-22T03:59:03;3.40;;;0.60;;
10311;SDS011;5201;48.776;9.128;2022-12-22T04:01:30;1.30;;;0.60;;
10311;SDS011;5201;48.776;9.128;2022-12-22T04:03:56;3.40;;;0.40;;
10311;SDS011;5201;48.776;9.128;2022-12-22T04:06:22;1.67;;;0.40;;
10311;SDS011;5201;48.776;9.128;2022-12-22T04:08:48;1.47;;;0.60;;
10311;SDS011;5201;48.776;9.128;2022-12-22T04:11:14;4.03;;;0.50;;
10311;SDS011;5201;48.776;9.128;2022-12-22T04:13:59;0.50;;;0.47;;
10311;SDS011;5201;48.776;9.128;2022-12-22T04:16:25;0.40;;;0.40;;
10311;SDS011;5201;48.776;9.128;2022-12-22T04:18:51;1.30;;;0.60;;
10311;SDS011;5201;48.776;9.128;2022-12-22T04:21:16;2.97;;;0.70;;
10311;SDS011;5201;48.776;9.128;2022-12-22T04:23:42;1.90;;;0.50;;
10311;SDS011;5201;48.776;9.128;2022-12-22T04:26:08;1.40;;;0.40;;
10311;SDS011;5201;48.776;9.128;2022-12-22T04:28:34;0.60;;;0.60;;
10311;SDS011;5201;48.776;9.128;2022-12-22T04:30:59;0.43;;;0.43;;
10311;SDS011;5201;48.776;9.128;2022-12-22T04:33:25;1.37;;;0.57;;
10311;SDS011;5201;48.776;9.128;2022-12-22T04:35:50;1.70;;;0.60;;
10311;SDS011;5201;48.776;9.128;2022-12-22T04:38:16;2.50;;;0.53;;
10311;SDS011;5201;48.776;9.128;2022-12-22T04:40:42;1.70;;;0.60;;
10311;SDS011;5201;48.776;9.128;2022-12-22T04:43:07;0.67;;;0.50;;
10311;SDS011;5201;48.776;9.128;2022-12-22T04:45:33;2.87;;;0.60;;
10311;SDS011;5201;48.776;9.128;2022-12-22T04:47:58;0.53;;;0.53;;
10311;SDS011;5201;48.776;9.128;2022-12-22T04:50:24;1.67;;;0.70;;
10311;SDS011;5201;48.776;9.128;2022-12-22T04:52:50;0.60;;;0.53;;
10311;SDS011;5201;48.776;9.128;2022-12-22T04:55:15;0.40;;;0.40;;
10311;SDS011;5201;48.776;9.128;2022-12-22T04:57:41;0.50;;;0.40;;
10311;SDS011;5201;48.776;9.128;2022-12-22T05:00:07;3.90;;;0.57;;
10311;SDS011;5201;48.776;9.128;2022-12-22T05:02:33;1.50;;;0.70;;
10311;SDS011;5201;48.776;9.128;2022-12-22T05:04:59;1.20;;;1.10;;
10311;SDS011;5201;48.776;9.128;2022-12-22T05:07:25;3.30;;;0.60;;
10311;SDS011;5201;48.776;9.128;2022-12-22T05:09:50;2.17;;;0.60;;
10311;SDS011;5201;48.776;9.128;2022-12-22T05:12:16;4.57;;;0.60;;
10311;SDS011;5201;48.776;9.128;2022-12-22T05:15:00;3.60;;;0.50;;
10311;SDS011;5201;48.776;9.128;2022-12-22T05:17:26;2.87;;;0.80;;
10311;SDS011;5201;48.776;9.128;2022-12-22T05:19:51;4.97;;;0.90;;
10311;SDS011;5201;48.776;9.128;2022-12-22T05:22:17;0.90;;;0.70;;
10311;SDS011;5201;48.776;9.128;2022-12-22T05:24:42;2.13;;;0.60;;
10311;SDS011;5201;48.776;9.128;2022-12-22T05:27:09;1.33;;;0.60;;
10311;SDS011;5201;48.776;9.128;2022-12-22T05:29:35;4.07;;;0.60;;
10311;SDS011;5201;48.776;9.128;2022-12-22T05:32:00;3.13;;;0.70;;
10311;SDS011;5201;48.776;9.128;2022-12-22T05:34:26;2.43;;;0.73;;
10311;SDS011;5201;48.776;9.128;2022-12-22T05:36:52;0.87;;;0.40;;
10311;SDS011;5201;48.776;9.128;2022-12-22T05:39:17;3.03;;;0.63;;
10311;SDS011;5201;48.776;9.128;2022-12-22T05:41:43;1.30;;;0.53;;
10311;SDS011;5201;48.776;9.128;2022-12-22T05:44:09;2.67;;;0.73;;
10311;SDS011;5201;48.776;9.128;2022-12-22T05:46:34;1.33;;;0.50;;
10311;SDS011;5201;48.776;9.128;2022-12-22T05:49:00;3.63;;;0.73;;
10311;SDS011;5201;48.776;9.128;2022-12-22T05:51:26;0.93;;;0.37;;
10311;SDS011;5201;48.776;9.128;2022-12-22T05:53:51;1.70;;;0.80;;
10311;SDS011;5201;48.776;9.128;2022-12-22T05:56:17;1.60;;;0.50;;
10311;SDS011;5201;48.776;9.128;2022-12-22T05:58:42;0.50;;;0.50;;
10311;SDS011;5201;48.776;9.128;2022-12-22T06:01:08;0.80;;;0.60;;
10311;SDS011;5201;48.776;9.128;2022-12-22T06:03:33;1.70;;;0.60;;
10311;SDS011;5201;48.776;9.128;2022-12-22T06:05:59;0.70;;;0.63;;
10311;SDS011;5201;48.776;9.128;2022-12-22T06:08:25;5.10;;;0.60;;
10311;SDS011;5201;48.776;9.128;2022-12-22T06:10:52;2.17;;;0.80;;
10311;SDS011;5201;48.776;9.128;2022-12-22T06:13:19;4.33;;;0.60;;
10311;SDS011;5201;48.776;9.128;2022-12-22T06:15:46;1.40;;;0.70;;
10311;SDS011;5201;48.776;9.128;2022-12-22T06:18:12;4.70;;;0.93;;
10311;SDS011;5201;48.776;9.128;2022-12-22T06:20:37;1.37;;;0.70;;
10311;SDS011;5201;48.776;9.128;2022-12-22T06:23:03;4.20;;;0.93;;
10311;SDS011;5201;48.776;9.128;2022-12-22T06:25:29;4.47;;;0.70;;
10311;SDS011;5201;48.776;9.128;2022-12-22T06:27:54;4.27;;;0.90;;
10311;SDS011;5201;48.776;9.128;2022-12-22T06:30:20;4.90;;;1.03;;
10311;SDS011;5201;48.776;9.128;2022-12-22T06:32:45;2.93;;;0.90;;
10311;SDS011;5201;48.776;9.128;2022-12-22T06:35:11;4.07;;;0.80;;
10311;SDS011;5201;48.776;9.128;2022-12-22T06:37:37;4.53;;;1.03;;
10311;SDS011;5201;48.776;9.128;2022-12-22T06:40:03;3.30;;;0.90;;
10311;SDS011;5201;48.776;9.128;2022-12-22T06:42:29;2.57;;;0.87;;
10311;SDS011;5201;48.776;9.128;2022-12-22T06:45:13;2.87;;;0.83;;
10311;SDS011;5201;48.776;9.128;2022-12-22T06:47:38;7.50;;;0.90;;
10311;SDS011;5201;48.776;9.128;2022-12-22T06:50:04;3.03;;;0.87;;
10311;SDS011;5201;48.776;9.128;2022-12-22T06:52:30;4.73;;;1.17;;
10311;SDS011;5201;48.776;9.128;2022-12-22T06:54:56;7.97;;;0.77;;
10311;SDS011;5201;48.776;9.128;2022-12-22T06:57:21;3.13;;;0.90;;
10311;SDS011;5201;48.776;9.128;2022-12-22T06:59:47;4.10;;;1.10;;
10311;SDS011;5201;48.776;9.128;2022-12-22T07:02:13;5.50;;;1.10;;
10311;SDS011;5201;48.776;9.128;2022-12-22T07:04:38;6.23;;;1.03;;
10311;SDS011;5201;48.776;9.128;2022-12-22T07:07:04;2.43;;;0.87;;
10311;SDS011;5201;48.776;9.128;2022-12-22T07:09:29;4.10;;;0.83;;
10311;SDS011;5201;48.776;9.128;2022-12-22T07:11:55;1.20;;;0.90;;
10311;SDS011;5201;48.776;9.128;2022-12-22T07:14:21;6.57;;;0.90;;
10311;SDS011;5201;48.776;9.128;2022-12-22T07:16:46;3.10;;;1.00;;
10311;SDS011;5201;48.776;9.128;2022-12-22T07:19:12;8.00;;;1.07;;
10311;SDS011;5201;48.776;9.128;2022-12-22T07:21:38;4.00;;;0.73;;
10311;SDS011;5201;48.776;9.128;2022-12-22T07:24:03;5.37;;;0.93;;
10311;SDS011;5201;48.776;9.128;2022-12-22T07:26:30;2.60;;;0.80;;
10311;SDS011;5201;48.776;9.128;2022-12-22T07:28:55;6.00;;;1.27;;
10311;SDS011;5201;48.776;9.128;2022-12-22T07:31:22;6.27;;;1.07;;
10311;SDS011;5201;48.776;9.128;2022-12-22T07:33:47;9.37;;;1.00;;
10311;SDS011;5201;48.776;9.128;2022-12-22T07:36:14;5.60;;;1.00;;
10311;SDS011;5201;48.776;9.128;2022-12-22T07:38:42;4.57;;;1.00;;
10311;SDS011;5201;48.776;9.128;2022-12-22T07:41:10;5.50;;;0.90;;
10311;SDS011;5201;48.776;9.128;2022-12-22T07:43:57;6.73;;;1.13;;
10311;SDS011;5201;48.776;9.128;2022-12-22T07:46:24;2.17;;;1.00;;
10311;SDS011;5201;48.776;9.128;2022-12-22T07:48:51;4.23;;;1.67;;
10311;SDS011;5201;48.776;9.128;2022-12-22T07:51:36;7.37;;;0.93;;
10311;SDS011;5201;48.776;9.128;2022-12-22T07:54:05;5.00;;;1.20;;
10311;SDS011;5201;48.776;9.128;2022-12-22T07:56:32;9.23;;;1.10;;
10311;SDS011;5201;48.776;9.128;2022-12-22T07:58:58;3.63;;;1.00;;
10311;SDS011;5201;48.776;9.128;2022-12-22T08:01:24;4.53;;;1.20;;
10311;SDS011;5201;48.776;9.128;2022-12-22T08:03:50;3.33;;;0.73;;
10311;SDS011;5201;48.776;9.128;2022-12-22T08:06:16;5.13;;;1.23;;
10311;SDS011;5201;48.776;9.128;2022-12-22T08:08:41;3.50;;;1.63;;
10311;SDS011;5201;48.776;9.128;2022-12-22T08:11:07;1.47;;;0.50;;
10311;SDS011;5201;48.776;9.128;2022-12-22T08:13:33;2.37;;;1.00;;
10311;SDS011;5201;48.776;9.128;2022-12-22T08:16:02;5.77;;;0.97;;
10311;SDS011;5201;48.776;9.128;2022-12-22T08:18:29;5.17;;;1.03;;
10311;SDS011;5201;48.776;9.128;2022-12-22T08:20:55;4.27;;;1.17;;
10311;SDS011;5201;48.776;9.128;2022-12-22T08:23:21;4.87;;;0.90;;
10311;SDS011;5201;48.776;9.128;2022-12-22T08:25:47;2.40;;;0.80;;
10311;SDS011;5201;48.776;9.128;2022-12-22T08:28:37;4.50;;;0.77;;
10311;SDS011;5201;48.776;9.128;2022-12-22T08:31:27;6.50;;;1.00;;
10311;SDS011;5201;48.776;9.128;2022-12-22T08:33:54;3.20;;;0.90;;
10311;SDS011;5201;48.776;9.128;2022-12-22T08:36:21;8.37;;;1.27;;
10311;SDS011;5201;48.776;9.128;2022-12-22T08:38:47;3.57;;;1.00;;
10311;SDS011;5201;48.776;9.128;2022-12-22T08:41:13;4.83;;;0.87;;
10311;SDS011;5201;48.776;9.128;2022-12-22T08:44:00;7.63;;;1.50;;
10311;SDS011;5201;48.776;9.128;2022-12-22T08:46:26;8.67;;;1.10;;
10311;SDS011;5201;48.776;9.128;2022-12-22T08:48:51;3.57;;;0.73;;
10311;SDS011;5201;48.776;9.128;2022-12-22T08:51:17;2.93;;;1.23;;
10311;SDS011;5201;48.776;9.128;2022-12-22T08:53:42;3.07;;;1.23;;
10311;SDS011;5201;48.776;9.128;2022-12-22T08:56:08;7.97;;;1.30;;
10311;SDS011;5201;48.776;9.128;2022-12-22T08:58:33;5.93;;;1.13;;
10311;SDS011;5201;48.776;9.128;2022-12-22T09:00:59;5.40;;;1.00;;
10311;SDS011;5201;48.776;9.128;2022-12-22T09:03:25;3.50;;;0.90;;
10311;SDS011;5201;48.776;9.128;2022-12-22T09:05:50;5.27;;;0.80;;
10311;SDS011;5201;48.776;9.128;2022-12-22T09:08:16;3.67;;;0.83;;
10311;SDS011;5201;48.776;9.128;2022-12-22T09:10:41;3.70;;;1.40;;
10311;SDS011;5201;48.776;9.128;2022-12-22T09:13:07;6.63;;;1.10;;
10311;SDS011;5201;48.776;9.128;2022-12-22T09:15:33;4.93;;;0.97;;
10311;SDS011;5201;48.776;9.128;2022-12-22T09:18:00;4.90;;;0.90;;
10311;SDS011;5201;48.776;9.128;2022-12-22T09:20:26;4.43;;;1.53;;
10311;SDS011;5201;48.776;9.128;2022-12-22T09:22:51;2.53;;;0.67;;
10311;SDS011;5201;48.776;9.128;2022-12-22T09:25:17;4.00;;;0.83;;
10311;SDS011;5201;48.776;9.128;2022-12-22T09:27:42;4.57;;;0.80;;
10311;SDS011;5201;48.776;9.128;2022-12-22T09:30:08;7.83;;;1.10;;
10311;SDS011;5201;48.776;9.128;2022-12-22T09:32:34;4.43;;;1.23;;
10311;SDS011;5201;48.776;9.128;2022-12-22T09:34:59;2.90;;;0.80;;
10311;SDS011;5201;48.776;9.128;2022-12-22T09:37:25;6.97;;;1.23;;
10311;SDS011;5201;48.776;9.128;2022-12-22T09:39:51;5.90;;;0.87;;
10311;SDS011;5201;48.776;9.128;2022-12-22T09:42:19;5.33;;;1.00;;
10311;SDS011;5201;48.776;9.128;2022-12-22T09:44:48;5.27;;;0.70;;
10311;SDS011;5201;48.776;9.128;2022-12-22T09:47:22;7.93;;;0.97;;
10311;SDS011;5201;48.776;9.128;2022-12-22T09:50:00;8.43;;;1.30;;
10311;SDS011;5201;48.776;9.128;2022-12-22T09:54:57;5.90;;;1.10;;
10311;SDS011;5201;48.776;9.128;2022-12-22T09:57:25;10.17;;;1.10;;
10311;SDS011;5201;48.776;9.128;2022-12-22T09:59:55;4.10;;;1.00;;
10311;SDS011;5201;48.776;9.128;2022-12-22T10:02:41;5.13;;;1.50;;
10311;SDS011;5201;48.776;9.128;2022-12-22T10:05:41;4.03;;;0.87;;
10311;SDS011;5201;48.776;9.128;2022-12-22T10:08:17;4.47;;;0.90;;
10311;SDS011;5201;48.776;9.128;2022-12-22T10:10:51;3.73;;;0.73;;
10311;SDS011;5201;48.776;9.128;2022-12-22T10:13:18;4.03;;;0.87;;
10311;SDS011;5201;48.776;9.128;2022-12-22T10:15:44;3.53;;;1.00;;
10311;SDS011;5201;48.776;9.128;2022-12-22T10:18:11;3.63;;;1.00;;
10311;SDS011;5201;48.776;9.128;2022-12-22T10:20:40;9.73;;;1.07;;
10311;SDS011;5201;48.776;9.128;2022-12-22T10:23:16;5.70;;;0.90;;
10311;SDS011;5201;48.776;9.128;2022-12-22T10:26:31;8.37;;;1.00;;
10311;SDS011;5201;48.776;9.128;2022-12-22T10:31:23;1.17;;;0.60;;
10311;SDS011;5201;48.776;9.128;2022-12-22T10:33:52;2.97;;;0.77;;
10311;SDS011;5201;48.776;9.128;2022-12-22T10:36:29;3.37;;;0.77;;
10311;SDS011;5201;48.776;9.128;2022-12-22T10:38:57;3.60;;;0.77;;
10311;SDS011;5201;48.776;9.128;2022-12-22T10:41:30;1.50;;;0.70;;
10311;SDS011;5201;48.776;9.128;2022-12-22T10:44:16;4.17;;;0.80;;
10311;SDS011;5201;48.776;9.128;2022-12-22T10:46:46;5.60;;;0.90;;
10311;SDS011;5201;48.776;9.128;2022-12-22T10:49:25;1.40;;;0.70;;
10311;SDS011;5201;48.776;9.128;2022-12-22T10:51:57;3.43;;;0.50;;
10311;SDS011;5201;48.776;9.128;2022-12-22T10:54:37;2.57;;;0.57;;
10311;SDS011;5201;48.776;9.128;2022-12-22T10:59:57;4.97;;;0.90;;
10311;SDS011;5201;48.776;9.128;2022-12-22T11:05:06;0.90;;;0.60;;
10311;SDS011;5201;48.776;9.128;2022-12-22T11:07:39;2.77;;;0.90;;
10311;SDS011;5201;48.776;9.128;2022-12-22T11:10:10;4.83;;;1.13;;
10311;SDS011;5201;48.776;9.128;2022-12-22T11:12:44;2.90;;;1.10;;
10311;SDS011;5201;48.776;9.128;2022-12-22T11:15:21;3.10;;;0.90;;
10311;SDS011;5201;48.776;9.128;2022-12-22T11:18:00;1.40;;;0.50;;
10311;SDS011;5201;48.776;9.128;2022-12-22T11:20:51;1.63;;;0.57;;
10311;SDS011;5201;48.776;9.128;2022-12-22T11:23:44;0.93;;;0.40;;
10311;SDS011;5201;48.776;9.128;2022-12-22T11:26:31;4.23;;;1.40;;
10311;SDS011;5201;48.776;9.128;2022-12-22T11:29:34;4.17;;;0.80;;
10311;SDS011;5201;48.776;9.128;2022-12-22T11:37:49;2.20;;;0.40;;
10311;SDS011;5201;48.776;9.128;2022-12-22T11:40:31;2.33;;;0.60;;
10311;SDS011;5201;48.776;9.128;2022-12-22T11:54:13;3.73;;;0.60;;
10311;SDS011;5201;48.776;9.128;2022-12-22T11:56:58;3.60;;;0.70;;
10311;SDS011;5201;48.776;9.128;2022-12-22T11:59:44;1.67;;;0.50;;
10311;SDS011;5201;48.776;9.128;2022-12-22T12:02:32;2.53;;;0.43;;
10311;SDS011;5201;48.776;9.128;2022-12-22T12:10:58;0.60;;;0.43;;
10311;SDS011;5201;48.776;9.128;2022-12-22T12:16:57;1.47;;;0.50;;
10311;SDS011;5201;48.776;9.128;2022-12-22T12:19:27;1.77;;;0.40;;
10311;SDS011;5201;48.776;9.128;2022-12-22T12:25:00;2.80;;;0.50;;
10311;SDS011;5201;48.776;9.128;2022-12-22T12:30:45;2.17;;;0.53;;
10311;SDS011;5201;48.776;9.128;2022-12-22T12:44:51;0.87;;;0.40;;
10311;SDS011;5201;48.776;9.128;2022-12-22T12:47:22;1.87;;;0.37;;
10311;SDS011;5201;48.776;9.128;2022-12-22T12:49:59;1.20;;;0.50;;
10311;SDS011;5201;48.776;9.128;2022-12-22T12:57:55;1.40;;;0.50;;
10311;SDS011;5201;48.776;9.128;2022-12-22T13:03:04;3.23;;;0.70;;
10311;SDS011;5201;48.776;9.128;2022-12-22T13:05:57;3.03;;;0.43;;
10311;SDS011;5201;48.776;9.128;2022-12-22T13:08:31;1.93;;;0.40;;
10311;SDS011;5201;48.776;9.128;2022-12-22T13:11:31;2.87;;;0.50;;
10311;SDS011;5201;48.776;9.128;2022-12-22T13:13:58;0.60;;;0.40;;
10311;SDS011;5201;48.776;9.128;2022-12-22T13:16:24;0.40;;;0.40;;
10311;SDS011;5201;48.776;9.128;2022-12-22T13:18:51;2.90;;;0.90;;
10311;SDS011;5201;48.776;9.128;2022-12-22T13:21:44;0.53;;;0.43;;
10311;SDS011;5201;48.776;9.128;2022-12-22T13:26:40;3.97;;;0.70;;
10311;SDS011;5201;48.776;9.128;2022-12-22T13:32:01;2.57;;;0.90;;
10311;SDS011;5201;48.776;9.128;2022-12-22T13:34:51;3.30;;;0.60;;
10311;SDS011;5201;48.776;9.128;2022-12-22T13:37:22;1.40;;;0.40;;
10311;SDS011;5201;48.776;9.128;2022-12-22T13:40:08;2.37;;;0.57;;
10311;SDS011;5201;48.776;9.128;2022-12-22T13:43:02;0.93;;;0.40;;
10311;SDS011;5201;48.776;9.128;2022-12-22T13:45:40;1.43;;;0.53;;
10311;SDS011;5201;48.776;9.128;2022-12-22T13:50:53;2.37;;;0.90;;
10311;SDS011;5201;48.776;9.128;2022-12-22T13:53:27;1.97;;;0.60;;
10311;SDS011;5201;48.776;9.128;2022-12-22T13:55:57;0.67;;;0.40;;
10311;SDS011;5201;48.776;9.128;2022-12-22T13:58:25;1.27;;;0.40;;
10311;SDS011;5201;48.776;9.128;2022-12-22T14:01:35;2.80;;;0.47;;
10311;SDS011;5201;48.776;9.128;2022-12-22T14:06:45;4.37;;;0.60;;
10311;SDS011;5201;48.776;9.128;2022-12-22T14:11:42;1.30;;;0.40;;
10311;SDS011;5201;48.776;9.128;2022-12-22T14:14:15;2.90;;;0.40;;
10311;SDS011;5201;48.776;9.128;2022-12-22T14:16:47;0.30;;;0.30;;
10311;SDS011;5201;48.776;9.128;2022-12-22T14:19:15;1.63;;;0.67;;
10311;SDS011;5201;48.776;9.128;2022-12-22T14:21:42;1.60;;;0.50;;
10311;SDS011;5201;48.776;9.128;2022-12-22T14:24:22;2.63;;;0.60;;
10311;SDS011;5201;48.776;9.128;2022-12-22T14:26:51;0.57;;;0.30;;
10311;SDS011;5201;48.776;9.128;2022-12-22T14:29:18;1.77;;;0.50;;
10311;SDS011;5201;48.776;9.128;2022-12-22T14:31:59;6.00;;;1.37;;
10311;SDS011;5201;48.776;9.128;2022-12-22T14:34:33;5.70;;;0.90;;
10311;SDS011;5201;48.776;9.128;2022-12-22T14:36:59;6.37;;;0.93;;
10311;SDS011;5201;48.776;9.128;2022-12-22T14:39:26;4.07;;;0.77;;
10311;SDS011;5201;48.776;9.128;2022-12-22T14:41:56;2.77;;;0.70;;
10311;SDS011;5201;48.776;9.128;2022-12-22T14:44:43;5.27;;;0.80;;
10311;SDS011;5201;48.776;9.128;2022-12-22T14:52:44;5.63;;;1.73;;
10311;SDS011;5201;48.776;9.128;2022-12-22T14:55:33;4.20;;;0.90;;
10311;SDS011;5201;48.776;9.128;2022-12-22T14:58:20;5.43;;;0.60;;
10311;SDS011;5201;48.776;9.128;2022-12-22T15:03:36;3.33;;;0.90;;
10311;SDS011;5201;48.776;9.128;2022-12-22T15:06:23;6.07;;;1.30;;
10311;SDS011;5201;48.776;9.128;2022-12-22T15:08:49;4.50;;;0.90;;
10311;SDS011;5201;48.776;9.128;2022-12-22T15:11:17;3.87;;;1.10;;
10311;SDS011;5201;48.776;9.128;2022-12-22T15:13:45;3.33;;;1.00;;
10311;SDS011;5201;48.776;9.128;2022-12-22T15:16:16;5.63;;;1.03;;
10311;SDS011;5201;48.776;9.128;2022-12-22T15:18:43;3.67;;;1.20;;
10311;SDS011;5201;48.776;9.128;2022-12-22T15:21:13;9.03;;;1.00;;
10311;SDS011;5201;48.776;9.128;2022-12-22T15:23:41;1.97;;;0.73;;
10311;SDS011;5201;48.776;9.128;2022-12-22T15:26:07;4.30;;;1.17;;
10311;SDS011;5201;48.776;9.128;2022-12-22T15:28:32;5.30;;;1.00;;
10311;SDS011;5201;48.776;9.128;2022-12-22T15:30:58;4.77;;;1.30;;
10311;SDS011;5201;48.776;9.128;2022-12-22T15:33:25;3.13;;;0.83;;
10311;SDS011;5201;48.776;9.128;2022-12-22T15:35:51;5.73;;;1.20;;
10311;SDS011;5201;48.776;9.128;2022-12-22T15:38:18;4.97;;;1.23;;
10311;SDS011;5201;48.776;9.128;2022-12-22T15:40:45;1.53;;;0.77;;
10311;SDS011;5201;48.776;9.128;2022-12-22T15:43:10;4.20;;;0.97;;
10311;SDS011;5201;48.776;9.128;2022-12-22T15:45:38;2.43;;;0.60;;
10311;SDS011;5201;48.776;9.128;2022-12-22T15:48:05;5.53;;;0.90;;
10311;SDS011;5201;48.776;9.128;2022-12-22T15:50:35;3.63;;;0.93;;
10311;SDS011;5201;48.776;9.128;2022-12-22T15:53:05;4.83;;;1.60;;
10311;SDS011;5201;48.776;9.128;2022-12-22T15:55:33;2.37;;;0.63;;
10311;SDS011;5201;48.776;9.128;2022-12-22T15:58:04;6.23;;;1.10;;
10311;SDS011;5201;48.776;9.128;2022-12-22T16:00:34;8.37;;;1.00;;
10311;SDS011;5201;48.776;9.128;2022-12-22T16:03:00;3.60;;;1.17;;
10311;SDS011;5201;48.776;9.128;2022-12-22T16:05:27;2.03;;;0.97;;
10311;SDS011;5201;48.776;9.128;2022-12-22T16:07:52;5.43;;;1.13;;
10311;SDS011;5201;48.776;9.128;2022-12-22T16:10:23;2.97;;;0.83;;
10311;SDS011;5201;48.776;9.128;2022-12-22T16:12:54;3.67;;;1.10;;
10311;SDS011;5201;48.776;9.128;2022-12-22T16:15:31;7.23;;;1.27;;
10311;SDS011;5201;48.776;9.128;2022-12-22T16:17:59;4.10;;;1.23;;
10311;SDS011;5201;48.776;9.128;2022-12-22T16:20:25;5.73;;;1.17;;
10311;SDS011;5201;48.776;9.128;2022-12-22T16:22:54;3.23;;;1.00;;
10311;SDS011;5201;48.776;9.128;2022-12-22T16:25:21;4.90;;;1.20;;
10311;SDS011;5201;48.776;9.128;2022-12-22T16:27:51;3.67;;;0.83;;
10311;SDS011;5201;48.776;9.128;2022-12-22T16:30:20;5.17;;;0.90;;
10311;SDS011;5201;48.776;9.128;2022-12-22T16:32:47;5.90;;;1.23;;
10311;SDS011;5201;48.776;9.128;2022-12-22T16:35:14;4.23;;;1.07;;
10311;SDS011;5201;48.776;9.128;2022-12-22T16:37:45;6.73;;;1.40;;
10311;SDS011;5201;48.776;9.128;2022-12-22T16:40:12;9.03;;;1.13;;
10311;SDS011;5201;48.776;9.128;2022-12-22T16:42:39;10.20;;;1.37;;
10311;SDS011;5201;48.776;9.128;2022-12-22T16:45:13;8.93;;;1.20;;
10311;SDS011;5201;48.776;9.128;2022-12-22T16:47:43;2.67;;;1.17;;
10311;SDS011;5201;48.776;9.128;2022-12-22T16:50:18;2.10;;;1.00;;
10311;SDS011;5201;48.776;9.128;2022-12-22T16:52:46;5.30;;;1.20;;
10311;SDS011;5201;48.776;9.128;2022-12-22T16:57:40;6.30;;;1.40;;
10311;SDS011;5201;48.776;9.128;2022-12-22T17:00:06;4.83;;;1.33;;
10311;SDS011;5201;48.776;9.128;2022-12-22T17:02:37;6.23;;;1.60;;
10311;SDS011;5201;48.776;9.128;2022-12-22T17:05:02;10.63;;;1.50;;
10311;SDS011;5201;48.776;9.128;2022-12-22T17:07:29;4.87;;;1.60;;
10311;SDS011;5201;48.776;9.128;2022-12-22T17:09:58;8.50;;;1.57;;
10311;SDS011;5201;48.776;9.128;2022-12-22T17:12:30;5.73;;;1.40;;
10311;SDS011;5201;48.776;9.128;2022-12-22T17:14:58;6.87;;;1.30;;
10311;SDS011;5201;48.776;9.128;2022-12-22T17:17:25;9.63;;;1.43;;
10311;SDS011;5201;48.776;9.128;2022-12-22T17:19:51;4.40;;;1.43;;
10311;SDS011;5201;48.776;9.128;2022-12-22T17:22:22;8.70;;;1.47;;
10311;SDS011;5201;48.776;9.128;2022-12-22T17:24:50;14.23;;;1.50;;
10311;SDS011;5201;48.776;9.128;2022-12-22T17:27:20;5.30;;;1.30;;
10311;SDS011;5201;48.776;9.128;2022-12-22T17:29:49;12.47;;;1.80;;